sensor_id;sensor_type;location;lat;lon;timestamp;P1;durP1;ratioP1;P2;durP2;ratioP2
68995;SDS011;56056;48.990;12.146;2023-03-01T00:00:53;12.30;;;10.90;;
68995;SDS011;56056;48.990;12.146;2023-03-01T00:03:18;15.70;;;13.80;;
68995;SDS011;56056;48.990;12.146;2023-03-01T00:05:44;6.97;;;6.38;;
68995;SDS011;56056;48.990;12.146;2023-03-01T00:08:10;13.75;;;10.70;;
68995;SDS011;56056;48.990;12.146;2023-03-01T00:10:36;13.70;;;12.65;;
68995;SDS011;56056;48.990;12.146;2023-03-01T00:13:03;16.55;;;9.48;;
68995;SDS011;56056;48.990;12.146;2023-03-01T00:15:30;6.80;;;6.10;;
68995;SDS011;56056;48.990;12.146;2023-03-01T00:17:55;7.10;;;6.53;;
68995;SDS011;56056;48.990;12.146;2023-03-01T00:20:22;6.65;;;6.25;;
68995;SDS011;56056;48.990;12.146;2023-03-01T00:22:47;15.02;;;10.98;;
68995;SDS011;56056;48.990;12.146;2023-03-01T00:25:13;11.32;;;10.43;;
68995;SDS011;56056;48.990;12.146;2023-03-01T00:27:39;7.18;;;6.75;;
68995;SDS011;56056;48.990;12.146;2023-03-01T00:30:06;38.45;;;26.17;;
68995;SDS011;56056;48.990;12.146;2023-03-01T00:32:34;8.13;;;7.53;;
68995;SDS011;56056;48.990;12.146;2023-03-01T00:34:59;11.43;;;10.40;;
68995;SDS011;56056;48.990;12.146;2023-03-01T00:37:25;15.77;;;14.60;;
68995;SDS011;56056;48.990;12.146;2023-03-01T00:39:50;8.00;;;7.23;;
68995;SDS011;56056;48.990;12.146;2023-03-01T00:42:16;21.10;;;14.90;;
68995;SDS011;56056;48.990;12.146;2023-03-01T00:44:42;10.20;;;9.43;;
68995;SDS011;56056;48.990;12.146;2023-03-01T00:47:09;15.77;;;14.68;;
68995;SDS011;56056;48.990;12.146;2023-03-01T00:49:35;11.50;;;10.20;;
68995;SDS011;56056;48.990;12.146;2023-03-01T00:52:00;6.30;;;5.87;;
68995;SDS011;56056;48.990;12.146;2023-03-01T00:54:26;9.87;;;9.17;;
68995;SDS011;56056;48.990;12.146;2023-03-01T00:56:52;12.30;;;11.33;;
68995;SDS011;56056;48.990;12.146;2023-03-01T00:59:17;10.60;;;9.73;;
68995;SDS011;56056;48.990;12.146;2023-03-01T01:01:43;13.30;;;12.33;;
68995;SDS011;56056;48.990;12.146;2023-03-01T01:04:10;7.30;;;6.70;;
68995;SDS011;56056;48.990;12.146;2023-03-01T01:06:38;9.77;;;9.03;;
68995;SDS011;56056;48.990;12.146;2023-03-01T01:09:07;14.67;;;12.00;;
68995;SDS011;56056;48.990;12.146;2023-03-01T01:11:33;11.83;;;10.60;;
68995;SDS011;56056;48.990;12.146;2023-03-01T01:14:01;10.10;;;9.07;;
68995;SDS011;56056;48.990;12.146;2023-03-01T01:16:28;8.20;;;7.50;;
68995;SDS011;56056;48.990;12.146;2023-03-01T01:18:54;11.07;;;9.95;;
68995;SDS011;56056;48.990;12.146;2023-03-01T01:21:22;77.63;;;63.80;;
68995;SDS011;56056;48.990;12.146;2023-03-01T01:23:48;14.07;;;12.98;;
68995;SDS011;56056;48.990;12.146;2023-03-01T01:26:15;13.03;;;11.70;;
68995;SDS011;56056;48.990;12.146;2023-03-01T01:28:41;36.13;;;32.13;;
68995;SDS011;56056;48.990;12.146;2023-03-01T01:31:07;10.70;;;6.60;;
68995;SDS011;56056;48.990;12.146;2023-03-01T01:33:33;9.98;;;7.30;;
68995;SDS011;56056;48.990;12.146;2023-03-01T01:35:59;19.20;;;17.57;;
68995;SDS011;56056;48.990;12.146;2023-03-01T01:38:26;4.33;;;4.10;;
68995;SDS011;56056;48.990;12.146;2023-03-01T01:40:52;9.10;;;8.18;;
68995;SDS011;56056;48.990;12.146;2023-03-01T01:43:19;6.63;;;6.23;;
68995;SDS011;56056;48.990;12.146;2023-03-01T01:45:46;7.15;;;6.45;;
68995;SDS011;56056;48.990;12.146;2023-03-01T01:48:12;16.90;;;15.48;;
68995;SDS011;56056;48.990;12.146;2023-03-01T01:50:41;11.43;;;10.68;;
68995;SDS011;56056;48.990;12.146;2023-03-01T01:53:10;14.27;;;11.93;;
68995;SDS011;56056;48.990;12.146;2023-03-01T01:55:39;16.42;;;10.32;;
68995;SDS011;56056;48.990;12.146;2023-03-01T01:58:08;11.07;;;10.20;;
68995;SDS011;56056;48.990;12.146;2023-03-01T02:00:34;17.07;;;14.43;;
68995;SDS011;56056;48.990;12.146;2023-03-01T02:03:03;17.73;;;15.83;;
68995;SDS011;56056;48.990;12.146;2023-03-01T02:05:33;7.20;;;6.70;;
68995;SDS011;56056;48.990;12.146;2023-03-01T02:08:02;7.67;;;6.90;;
68995;SDS011;56056;48.990;12.146;2023-03-01T02:10:28;17.00;;;13.07;;
68995;SDS011;56056;48.990;12.146;2023-03-01T02:12:55;7.00;;;6.30;;
68995;SDS011;56056;48.990;12.146;2023-03-01T02:15:21;14.00;;;12.52;;
68995;SDS011;56056;48.990;12.146;2023-03-01T02:17:47;8.68;;;7.90;;
68995;SDS011;56056;48.990;12.146;2023-03-01T02:20:14;16.50;;;12.13;;
68995;SDS011;56056;48.990;12.146;2023-03-01T02:22:44;9.00;;;7.88;;
68995;SDS011;56056;48.990;12.146;2023-03-01T02:25:12;5.70;;;5.00;;
68995;SDS011;56056;48.990;12.146;2023-03-01T02:28:01;8.30;;;7.70;;
68995;SDS011;56056;48.990;12.146;2023-03-01T02:30:32;18.20;;;14.77;;
68995;SDS011;56056;48.990;12.146;2023-03-01T02:32:58;20.27;;;15.95;;
68995;SDS011;56056;48.990;12.146;2023-03-01T02:35:27;14.00;;;7.13;;
68995;SDS011;56056;48.990;12.146;2023-03-01T02:37:55;7.53;;;6.80;;
68995;SDS011;56056;48.990;12.146;2023-03-01T02:40:22;7.57;;;6.33;;
68995;SDS011;56056;48.990;12.146;2023-03-01T02:42:49;23.30;;;19.97;;
68995;SDS011;56056;48.990;12.146;2023-03-01T02:45:16;13.48;;;12.13;;
68995;SDS011;56056;48.990;12.146;2023-03-01T02:47:44;15.00;;;13.83;;
68995;SDS011;56056;48.990;12.146;2023-03-01T02:50:12;7.50;;;6.77;;
68995;SDS011;56056;48.990;12.146;2023-03-01T02:52:44;8.32;;;6.57;;
68995;SDS011;56056;48.990;12.146;2023-03-01T02:55:16;19.50;;;12.88;;
68995;SDS011;56056;48.990;12.146;2023-03-01T02:57:43;17.30;;;15.75;;
68995;SDS011;56056;48.990;12.146;2023-03-01T03:00:10;10.93;;;9.97;;
68995;SDS011;56056;48.990;12.146;2023-03-01T03:02:45;10.73;;;9.83;;
68995;SDS011;56056;48.990;12.146;2023-03-01T03:05:12;9.05;;;8.25;;
68995;SDS011;56056;48.990;12.146;2023-03-01T03:07:40;14.23;;;13.10;;
68995;SDS011;56056;48.990;12.146;2023-03-01T03:10:08;8.60;;;5.93;;
68995;SDS011;56056;48.990;12.146;2023-03-01T03:12:36;21.40;;;19.50;;
68995;SDS011;56056;48.990;12.146;2023-03-01T03:15:02;7.37;;;6.17;;
68995;SDS011;56056;48.990;12.146;2023-03-01T03:17:33;12.87;;;8.57;;
68995;SDS011;56056;48.990;12.146;2023-03-01T03:20:00;22.37;;;20.13;;
68995;SDS011;56056;48.990;12.146;2023-03-01T03:22:26;8.97;;;8.03;;
68995;SDS011;56056;48.990;12.146;2023-03-01T03:24:53;12.23;;;11.23;;
68995;SDS011;56056;48.990;12.146;2023-03-01T03:27:19;10.93;;;9.97;;
68995;SDS011;56056;48.990;12.146;2023-03-01T03:29:45;13.43;;;9.47;;
68995;SDS011;56056;48.990;12.146;2023-03-01T03:32:10;7.10;;;6.40;;
68995;SDS011;56056;48.990;12.146;2023-03-01T03:34:36;16.37;;;7.20;;
68995;SDS011;56056;48.990;12.146;2023-03-01T03:37:03;12.43;;;11.23;;
68995;SDS011;56056;48.990;12.146;2023-03-01T03:39:49;20.37;;;16.47;;
68995;SDS011;56056;48.990;12.146;2023-03-01T03:42:14;11.07;;;10.27;;
68995;SDS011;56056;48.990;12.146;2023-03-01T03:44:40;9.70;;;8.30;;
68995;SDS011;56056;48.990;12.146;2023-03-01T03:47:06;15.47;;;14.00;;
68995;SDS011;56056;48.990;12.146;2023-03-01T03:49:31;8.90;;;8.10;;
68995;SDS011;56056;48.990;12.146;2023-03-01T03:51:58;12.07;;;11.30;;
68995;SDS011;56056;48.990;12.146;2023-03-01T03:54:25;9.75;;;8.43;;
68995;SDS011;56056;48.990;12.146;2023-03-01T03:56:51;9.60;;;8.87;;
68995;SDS011;56056;48.990;12.146;2023-03-01T03:59:16;17.73;;;13.73;;
68995;SDS011;56056;48.990;12.146;2023-03-01T04:01:42;12.30;;;7.00;;
68995;SDS011;56056;48.990;12.146;2023-03-01T04:04:09;13.63;;;12.27;;
68995;SDS011;56056;48.990;12.146;2023-03-01T04:06:35;12.27;;;10.67;;
68995;SDS011;56056;48.990;12.146;2023-03-01T04:09:00;15.07;;;9.03;;
68995;SDS011;56056;48.990;12.146;2023-03-01T04:11:28;12.03;;;11.00;;
68995;SDS011;56056;48.990;12.146;2023-03-01T04:13:55;13.63;;;12.50;;
68995;SDS011;56056;48.990;12.146;2023-03-01T04:16:21;14.90;;;13.95;;
68995;SDS011;56056;48.990;12.146;2023-03-01T04:18:47;16.23;;;14.93;;
68995;SDS011;56056;48.990;12.146;2023-03-01T04:21:13;7.93;;;7.27;;
68995;SDS011;56056;48.990;12.146;2023-03-01T04:23:39;9.83;;;9.13;;
68995;SDS011;56056;48.990;12.146;2023-03-01T04:26:06;18.07;;;16.53;;
68995;SDS011;56056;48.990;12.146;2023-03-01T04:28:34;7.60;;;6.77;;
68995;SDS011;56056;48.990;12.146;2023-03-01T04:31:02;15.07;;;14.00;;
68995;SDS011;56056;48.990;12.146;2023-03-01T04:33:38;7.27;;;6.63;;
68995;SDS011;56056;48.990;12.146;2023-03-01T04:36:05;14.60;;;13.20;;
68995;SDS011;56056;48.990;12.146;2023-03-01T04:38:33;20.07;;;10.33;;
68995;SDS011;56056;48.990;12.146;2023-03-01T04:40:59;32.57;;;11.57;;
68995;SDS011;56056;48.990;12.146;2023-03-01T04:43:25;9.30;;;8.43;;
68995;SDS011;56056;48.990;12.146;2023-03-01T04:45:52;8.07;;;7.57;;
68995;SDS011;56056;48.990;12.146;2023-03-01T04:48:17;6.23;;;5.83;;
68995;SDS011;56056;48.990;12.146;2023-03-01T04:50:43;12.03;;;8.87;;
68995;SDS011;56056;48.990;12.146;2023-03-01T04:53:09;13.70;;;12.43;;
68995;SDS011;56056;48.990;12.146;2023-03-01T04:55:34;8.13;;;7.47;;
68995;SDS011;56056;48.990;12.146;2023-03-01T04:58:00;8.43;;;7.87;;
68995;SDS011;56056;48.990;12.146;2023-03-01T05:00:26;15.17;;;13.73;;
68995;SDS011;56056;48.990;12.146;2023-03-01T05:02:53;14.57;;;13.53;;
68995;SDS011;56056;48.990;12.146;2023-03-01T05:05:21;13.57;;;12.57;;
68995;SDS011;56056;48.990;12.146;2023-03-01T05:07:50;8.97;;;8.37;;
68995;SDS011;56056;48.990;12.146;2023-03-01T05:10:19;23.60;;;21.30;;
68995;SDS011;56056;48.990;12.146;2023-03-01T05:12:45;12.70;;;11.57;;
68995;SDS011;56056;48.990;12.146;2023-03-01T05:15:11;12.30;;;11.07;;
68995;SDS011;56056;48.990;12.146;2023-03-01T05:17:37;9.50;;;8.40;;
68995;SDS011;56056;48.990;12.146;2023-03-01T05:20:05;12.90;;;11.83;;
68995;SDS011;56056;48.990;12.146;2023-03-01T05:22:33;6.83;;;6.33;;
68995;SDS011;56056;48.990;12.146;2023-03-01T05:24:59;9.10;;;7.80;;
68995;SDS011;56056;48.990;12.146;2023-03-01T05:27:25;11.07;;;8.17;;
68995;SDS011;56056;48.990;12.146;2023-03-01T05:29:51;8.37;;;7.23;;
68995;SDS011;56056;48.990;12.146;2023-03-01T05:32:16;20.07;;;18.43;;
68995;SDS011;56056;48.990;12.146;2023-03-01T05:34:42;10.50;;;9.37;;
68995;SDS011;56056;48.990;12.146;2023-03-01T05:37:09;7.47;;;6.70;;
68995;SDS011;56056;48.990;12.146;2023-03-01T05:39:34;10.10;;;9.30;;
68995;SDS011;56056;48.990;12.146;2023-03-01T05:42:01;13.83;;;12.90;;
68995;SDS011;56056;48.990;12.146;2023-03-01T05:44:27;26.13;;;15.07;;
68995;SDS011;56056;48.990;12.146;2023-03-01T05:46:53;19.37;;;8.00;;
68995;SDS011;56056;48.990;12.146;2023-03-01T05:49:19;8.23;;;7.60;;
68995;SDS011;56056;48.990;12.146;2023-03-01T05:51:47;19.93;;;17.37;;
68995;SDS011;56056;48.990;12.146;2023-03-01T05:54:17;11.70;;;10.80;;
68995;SDS011;56056;48.990;12.146;2023-03-01T05:56:43;20.60;;;18.80;;
68995;SDS011;56056;48.990;12.146;2023-03-01T05:59:09;17.60;;;15.90;;
68995;SDS011;56056;48.990;12.146;2023-03-01T06:01:35;9.20;;;8.30;;
68995;SDS011;56056;48.990;12.146;2023-03-01T06:04:01;23.03;;;15.83;;
68995;SDS011;56056;48.990;12.146;2023-03-01T06:06:27;12.07;;;11.10;;
68995;SDS011;56056;48.990;12.146;2023-03-01T06:08:54;5.77;;;5.37;;
68995;SDS011;56056;48.990;12.146;2023-03-01T06:11:21;11.07;;;10.03;;
68995;SDS011;56056;48.990;12.146;2023-03-01T06:13:47;12.87;;;11.70;;
68995;SDS011;56056;48.990;12.146;2023-03-01T06:16:13;6.50;;;6.10;;
68995;SDS011;56056;48.990;12.146;2023-03-01T06:18:39;13.63;;;12.67;;
68995;SDS011;56056;48.990;12.146;2023-03-01T06:21:05;18.53;;;16.93;;
68995;SDS011;56056;48.990;12.146;2023-03-01T06:23:32;22.30;;;20.23;;
68995;SDS011;56056;48.990;12.146;2023-03-01T06:25:58;9.87;;;9.03;;
68995;SDS011;56056;48.990;12.146;2023-03-01T06:28:26;15.02;;;8.82;;
68995;SDS011;56056;48.990;12.146;2023-03-01T06:30:52;13.80;;;12.70;;
68995;SDS011;56056;48.990;12.146;2023-03-01T06:33:18;12.07;;;8.87;;
68995;SDS011;56056;48.990;12.146;2023-03-01T06:35:45;10.13;;;9.23;;
68995;SDS011;56056;48.990;12.146;2023-03-01T06:38:10;13.30;;;10.53;;
68995;SDS011;56056;48.990;12.146;2023-03-01T06:40:36;17.47;;;11.00;;
68995;SDS011;56056;48.990;12.146;2023-03-01T06:43:02;6.27;;;5.87;;
68995;SDS011;56056;48.990;12.146;2023-03-01T06:45:29;6.00;;;5.40;;
68995;SDS011;56056;48.990;12.146;2023-03-01T06:48:00;10.50;;;8.63;;
68995;SDS011;56056;48.990;12.146;2023-03-01T06:50:27;8.67;;;7.60;;
68995;SDS011;56056;48.990;12.146;2023-03-01T06:52:55;11.97;;;10.90;;
68995;SDS011;56056;48.990;12.146;2023-03-01T06:55:21;7.80;;;7.27;;
68995;SDS011;56056;48.990;12.146;2023-03-01T06:57:46;18.67;;;14.63;;
68995;SDS011;56056;48.990;12.146;2023-03-01T07:00:12;17.27;;;10.30;;
68995;SDS011;56056;48.990;12.146;2023-03-01T07:02:40;17.60;;;13.70;;
68995;SDS011;56056;48.990;12.146;2023-03-01T07:05:06;6.93;;;6.33;;
68995;SDS011;56056;48.990;12.146;2023-03-01T07:07:32;15.17;;;13.43;;
68995;SDS011;56056;48.990;12.146;2023-03-01T07:09:57;7.67;;;7.00;;
68995;SDS011;56056;48.990;12.146;2023-03-01T07:12:23;12.60;;;11.67;;
68995;SDS011;56056;48.990;12.146;2023-03-01T07:14:49;12.17;;;11.17;;
68995;SDS011;56056;48.990;12.146;2023-03-01T07:17:14;9.02;;;6.82;;
68995;SDS011;56056;48.990;12.146;2023-03-01T07:19:41;11.60;;;10.50;;
68995;SDS011;56056;48.990;12.146;2023-03-01T07:22:07;12.20;;;10.95;;
68995;SDS011;56056;48.990;12.146;2023-03-01T07:24:34;10.15;;;9.15;;
68995;SDS011;56056;48.990;12.146;2023-03-01T07:26:59;15.18;;;9.30;;
68995;SDS011;56056;48.990;12.146;2023-03-01T07:29:25;11.68;;;9.70;;
68995;SDS011;56056;48.990;12.146;2023-03-01T07:31:51;8.50;;;6.32;;
68995;SDS011;56056;48.990;12.146;2023-03-01T07:34:16;18.98;;;10.27;;
68995;SDS011;56056;48.990;12.146;2023-03-01T07:36:43;13.52;;;8.63;;
68995;SDS011;56056;48.990;12.146;2023-03-01T07:39:10;13.20;;;8.75;;
68995;SDS011;56056;48.990;12.146;2023-03-01T07:41:36;599.08;;;322.83;;
68995;SDS011;56056;48.990;12.146;2023-03-01T07:44:02;26.20;;;15.77;;
68995;SDS011;56056;48.990;12.146;2023-03-01T07:46:28;91.22;;;64.50;;
68995;SDS011;56056;48.990;12.146;2023-03-01T07:48:53;79.30;;;67.85;;
68995;SDS011;56056;48.990;12.146;2023-03-01T07:51:19;207.55;;;155.40;;
68995;SDS011;56056;48.990;12.146;2023-03-01T07:53:47;561.08;;;335.10;;
68995;SDS011;56056;48.990;12.146;2023-03-01T07:56:13;859.13;;;608.65;;
68995;SDS011;56056;48.990;12.146;2023-03-01T07:58:42;1288.47;;;828.08;;
68995;SDS011;56056;48.990;12.146;2023-03-01T08:01:10;1984.07;;;954.60;;
68995;SDS011;56056;48.990;12.146;2023-03-01T08:03:36;1999.90;;;999.90;;
68995;SDS011;56056;48.990;12.146;2023-03-01T08:06:03;1999.90;;;999.90;;
68995;SDS011;56056;48.990;12.146;2023-03-01T08:08:30;1999.90;;;999.90;;
68995;SDS011;56056;48.990;12.146;2023-03-01T08:10:58;1999.90;;;999.90;;
68995;SDS011;56056;48.990;12.146;2023-03-01T08:13:24;1999.90;;;999.90;;
68995;SDS011;56056;48.990;12.146;2023-03-01T08:15:49;1999.90;;;999.90;;
68995;SDS011;56056;48.990;12.146;2023-03-01T08:18:15;1999.90;;;999.90;;
68995;SDS011;56056;48.990;12.146;2023-03-01T08:20:41;1999.90;;;975.20;;
68995;SDS011;56056;48.990;12.146;2023-03-01T08:23:07;1999.90;;;999.90;;
68995;SDS011;56056;48.990;12.146;2023-03-01T08:25:32;1999.90;;;951.10;;
68995;SDS011;56056;48.990;12.146;2023-03-01T08:27:59;1999.90;;;999.90;;
68995;SDS011;56056;48.990;12.146;2023-03-01T08:30:25;1999.90;;;999.90;;
68995;SDS011;56056;48.990;12.146;2023-03-01T08:32:51;1999.90;;;999.90;;
68995;SDS011;56056;48.990;12.146;2023-03-01T08:35:17;1999.90;;;999.90;;
68995;SDS011;56056;48.990;12.146;2023-03-01T08:37:44;1999.90;;;914.55;;
68995;SDS011;56056;48.990;12.146;2023-03-01T08:40:10;1999.90;;;999.90;;
68995;SDS011;56056;48.990;12.146;2023-03-01T08:42:38;1999.90;;;999.90;;
68995;SDS011;56056;48.990;12.146;2023-03-01T08:45:06;1999.90;;;987.85;;
68995;SDS011;56056;48.990;12.146;2023-03-01T08:47:32;1999.90;;;999.90;;
68995;SDS011;56056;48.990;12.146;2023-03-01T08:49:58;1999.90;;;999.90;;
68995;SDS011;56056;48.990;12.146;2023-03-01T08:52:24;1999.90;;;999.90;;
68995;SDS011;56056;48.990;12.146;2023-03-01T08:54:49;1999.90;;;999.90;;
68995;SDS011;56056;48.990;12.146;2023-03-01T08:57:15;1999.90;;;999.90;;
68995;SDS011;56056;48.990;12.146;2023-03-01T08:59:41;1999.90;;;999.90;;
68995;SDS011;56056;48.990;12.146;2023-03-01T09:02:10;1999.90;;;999.90;;
68995;SDS011;56056;48.990;12.146;2023-03-01T09:04:37;1999.90;;;999.90;;
68995;SDS011;56056;48.990;12.146;2023-03-01T09:07:03;1999.90;;;999.90;;
68995;SDS011;56056;48.990;12.146;2023-03-01T09:09:29;1999.90;;;999.90;;
68995;SDS011;56056;48.990;12.146;2023-03-01T09:11:55;1999.90;;;999.90;;
68995;SDS011;56056;48.990;12.146;2023-03-01T09:14:20;1999.90;;;999.90;;
68995;SDS011;56056;48.990;12.146;2023-03-01T09:16:46;1999.90;;;999.90;;
68995;SDS011;56056;48.990;12.146;2023-03-01T09:19:13;1999.90;;;999.90;;
68995;SDS011;56056;48.990;12.146;2023-03-01T09:21:39;1999.90;;;976.80;;
68995;SDS011;56056;48.990;12.146;2023-03-01T09:24:05;1999.90;;;837.40;;
68995;SDS011;56056;48.990;12.146;2023-03-01T09:26:31;1999.90;;;846.67;;
68995;SDS011;56056;48.990;12.146;2023-03-01T09:28:56;1999.90;;;999.90;;
68995;SDS011;56056;48.990;12.146;2023-03-01T09:31:23;1999.90;;;721.15;;
68995;SDS011;56056;48.990;12.146;2023-03-01T09:33:49;1999.90;;;897.13;;
68995;SDS011;56056;48.990;12.146;2023-03-01T09:36:18;1999.90;;;852.42;;
68995;SDS011;56056;48.990;12.146;2023-03-01T09:38:45;1999.90;;;817.78;;
68995;SDS011;56056;48.990;12.146;2023-03-01T09:41:18;1999.90;;;861.42;;
68995;SDS011;56056;48.990;12.146;2023-03-01T09:43:52;1999.90;;;724.63;;
68995;SDS011;56056;48.990;12.146;2023-03-01T09:46:22;1999.90;;;999.90;;
68995;SDS011;56056;48.990;12.146;2023-03-01T09:48:49;1999.90;;;999.90;;
68995;SDS011;56056;48.990;12.146;2023-03-01T09:51:19;1999.90;;;999.90;;
68995;SDS011;56056;48.990;12.146;2023-03-01T09:53:48;1999.90;;;999.90;;
68995;SDS011;56056;48.990;12.146;2023-03-01T09:56:16;1999.90;;;999.90;;
68995;SDS011;56056;48.990;12.146;2023-03-01T09:58:47;1999.90;;;999.90;;
68995;SDS011;56056;48.990;12.146;2023-03-01T10:01:29;1999.90;;;999.90;;
68995;SDS011;56056;48.990;12.146;2023-03-01T10:04:16;1999.90;;;694.63;;
68995;SDS011;56056;48.990;12.146;2023-03-01T10:06:55;1999.90;;;999.90;;
68995;SDS011;56056;48.990;12.146;2023-03-01T10:09:28;1999.90;;;999.90;;
68995;SDS011;56056;48.990;12.146;2023-03-01T10:11:57;1999.90;;;999.90;;
68995;SDS011;56056;48.990;12.146;2023-03-01T10:14:27;1999.90;;;999.90;;
68995;SDS011;56056;48.990;12.146;2023-03-01T10:16:57;1999.90;;;825.08;;
68995;SDS011;56056;48.990;12.146;2023-03-01T10:19:27;1999.90;;;999.90;;
68995;SDS011;56056;48.990;12.146;2023-03-01T10:21:57;1999.90;;;738.83;;
68995;SDS011;56056;48.990;12.146;2023-03-01T10:24:25;1999.90;;;999.90;;
68995;SDS011;56056;48.990;12.146;2023-03-01T10:26:53;1999.90;;;999.90;;
68995;SDS011;56056;48.990;12.146;2023-03-01T10:29:21;1999.90;;;843.58;;
68995;SDS011;56056;48.990;12.146;2023-03-01T10:31:50;1999.90;;;999.90;;
68995;SDS011;56056;48.990;12.146;2023-03-01T10:34:17;1999.90;;;884.60;;
68995;SDS011;56056;48.990;12.146;2023-03-01T10:36:45;1999.90;;;508.30;;
68995;SDS011;56056;48.990;12.146;2023-03-01T10:39:17;1999.90;;;999.90;;
68995;SDS011;56056;48.990;12.146;2023-03-01T10:41:51;1999.90;;;999.90;;
68995;SDS011;56056;48.990;12.146;2023-03-01T10:44:34;1999.90;;;866.05;;
68995;SDS011;56056;48.990;12.146;2023-03-01T10:47:01;1999.90;;;999.90;;
68995;SDS011;56056;48.990;12.146;2023-03-01T10:49:27;1999.90;;;777.40;;
68995;SDS011;56056;48.990;12.146;2023-03-01T10:51:53;1999.90;;;723.60;;
68995;SDS011;56056;48.990;12.146;2023-03-01T10:54:22;1999.90;;;824.20;;
68995;SDS011;56056;48.990;12.146;2023-03-01T10:56:50;1999.90;;;932.30;;
68995;SDS011;56056;48.990;12.146;2023-03-01T10:59:28;1999.90;;;676.95;;
68995;SDS011;56056;48.990;12.146;2023-03-01T11:02:08;1999.90;;;999.90;;
68995;SDS011;56056;48.990;12.146;2023-03-01T11:04:47;1999.90;;;817.25;;
68995;SDS011;56056;48.990;12.146;2023-03-01T11:07:22;1999.90;;;704.42;;
68995;SDS011;56056;48.990;12.146;2023-03-01T11:09:49;1999.90;;;908.45;;
68995;SDS011;56056;48.990;12.146;2023-03-01T11:12:15;1999.90;;;825.33;;
68995;SDS011;56056;48.990;12.146;2023-03-01T11:14:45;1999.90;;;815.03;;
68995;SDS011;56056;48.990;12.146;2023-03-01T11:17:12;1999.90;;;807.40;;
68995;SDS011;56056;48.990;12.146;2023-03-01T11:19:40;1999.90;;;790.90;;
68995;SDS011;56056;48.990;12.146;2023-03-01T11:22:07;1999.90;;;830.90;;
68995;SDS011;56056;48.990;12.146;2023-03-01T11:24:39;1999.90;;;970.58;;
68995;SDS011;56056;48.990;12.146;2023-03-01T11:27:12;1999.90;;;916.10;;
68995;SDS011;56056;48.990;12.146;2023-03-01T11:29:42;1999.90;;;969.88;;
68995;SDS011;56056;48.990;12.146;2023-03-01T11:32:11;1999.90;;;920.03;;
68995;SDS011;56056;48.990;12.146;2023-03-01T11:34:40;1999.90;;;999.20;;
68995;SDS011;56056;48.990;12.146;2023-03-01T11:37:10;1999.90;;;995.67;;
68995;SDS011;56056;48.990;12.146;2023-03-01T11:39:43;1999.90;;;926.05;;
68995;SDS011;56056;48.990;12.146;2023-03-01T11:42:14;1999.90;;;912.53;;
68995;SDS011;56056;48.990;12.146;2023-03-01T11:44:43;1999.90;;;859.13;;
68995;SDS011;56056;48.990;12.146;2023-03-01T11:47:15;1999.90;;;921.88;;
68995;SDS011;56056;48.990;12.146;2023-03-01T11:49:55;1999.90;;;753.08;;
68995;SDS011;56056;48.990;12.146;2023-03-01T11:52:29;1999.90;;;839.67;;
68995;SDS011;56056;48.990;12.146;2023-03-01T11:55:08;1999.90;;;811.00;;
68995;SDS011;56056;48.990;12.146;2023-03-01T11:57:47;1999.90;;;999.90;;
68995;SDS011;56056;48.990;12.146;2023-03-01T12:00:37;1999.90;;;866.10;;
68995;SDS011;56056;48.990;12.146;2023-03-01T12:03:24;1999.90;;;695.33;;
68995;SDS011;56056;48.990;12.146;2023-03-01T12:06:02;1999.90;;;852.58;;
68995;SDS011;56056;48.990;12.146;2023-03-01T12:08:41;1999.90;;;799.00;;
68995;SDS011;56056;48.990;12.146;2023-03-01T12:11:13;1999.90;;;887.72;;
68995;SDS011;56056;48.990;12.146;2023-03-01T12:14:02;1999.90;;;731.40;;
68995;SDS011;56056;48.990;12.146;2023-03-01T12:19:46;1999.90;;;873.85;;
68995;SDS011;56056;48.990;12.146;2023-03-01T12:22:27;1999.90;;;795.53;;
68995;SDS011;56056;48.990;12.146;2023-03-01T12:24:58;1999.90;;;760.55;;
68995;SDS011;56056;48.990;12.146;2023-03-01T12:27:41;1999.90;;;838.88;;
68995;SDS011;56056;48.990;12.146;2023-03-01T12:30:21;1999.90;;;859.45;;
68995;SDS011;56056;48.990;12.146;2023-03-01T12:32:54;1999.90;;;770.15;;
68995;SDS011;56056;48.990;12.146;2023-03-01T12:35:28;1999.90;;;930.40;;
68995;SDS011;56056;48.990;12.146;2023-03-01T12:38:08;1999.90;;;877.45;;
68995;SDS011;56056;48.990;12.146;2023-03-01T12:40:46;1999.90;;;892.13;;
68995;SDS011;56056;48.990;12.146;2023-03-01T12:43:28;1999.90;;;903.90;;
68995;SDS011;56056;48.990;12.146;2023-03-01T12:46:10;1999.90;;;962.10;;
68995;SDS011;56056;48.990;12.146;2023-03-01T12:48:43;1999.90;;;926.85;;
68995;SDS011;56056;48.990;12.146;2023-03-01T12:51:16;1999.90;;;931.60;;
68995;SDS011;56056;48.990;12.146;2023-03-01T12:53:45;1999.90;;;966.95;;
68995;SDS011;56056;48.990;12.146;2023-03-01T12:56:13;1999.90;;;893.55;;
68995;SDS011;56056;48.990;12.146;2023-03-01T12:58:42;1999.90;;;742.97;;
68995;SDS011;56056;48.990;12.146;2023-03-01T13:01:22;1999.90;;;740.08;;
68995;SDS011;56056;48.990;12.146;2023-03-01T13:04:02;1999.90;;;961.47;;
68995;SDS011;56056;48.990;12.146;2023-03-01T13:06:38;1999.90;;;905.13;;
68995;SDS011;56056;48.990;12.146;2023-03-01T13:09:08;1999.90;;;953.60;;
68995;SDS011;56056;48.990;12.146;2023-03-01T13:11:41;1999.90;;;911.33;;
68995;SDS011;56056;48.990;12.146;2023-03-01T13:20:11;1999.90;;;779.92;;
68995;SDS011;56056;48.990;12.146;2023-03-01T13:22:41;1999.90;;;809.50;;
68995;SDS011;56056;48.990;12.146;2023-03-01T13:25:12;1999.90;;;876.92;;
68995;SDS011;56056;48.990;12.146;2023-03-01T13:27:40;1999.90;;;714.60;;
68995;SDS011;56056;48.990;12.146;2023-03-01T13:30:12;1999.90;;;872.05;;
68995;SDS011;56056;48.990;12.146;2023-03-01T13:36:11;1999.90;;;870.58;;
68995;SDS011;56056;48.990;12.146;2023-03-01T13:39:26;1999.90;;;770.58;;
68995;SDS011;56056;48.990;12.146;2023-03-01T13:41:53;1999.90;;;999.90;;
68995;SDS011;56056;48.990;12.146;2023-03-01T13:44:21;1999.90;;;814.25;;
68995;SDS011;56056;48.990;12.146;2023-03-01T13:46:51;1999.90;;;969.88;;
68995;SDS011;56056;48.990;12.146;2023-03-01T13:49:20;1999.90;;;786.53;;
68995;SDS011;56056;48.990;12.146;2023-03-01T13:51:48;1999.90;;;441.67;;
68995;SDS011;56056;48.990;12.146;2023-03-01T13:54:15;1999.90;;;604.42;;
68995;SDS011;56056;48.990;12.146;2023-03-01T13:56:42;1955.93;;;668.03;;
68995;SDS011;56056;48.990;12.146;2023-03-01T13:59:13;1999.90;;;706.90;;
68995;SDS011;56056;48.990;12.146;2023-03-01T14:01:39;1858.32;;;349.08;;
68995;SDS011;56056;48.990;12.146;2023-03-01T14:04:17;1999.90;;;525.05;;
68995;SDS011;56056;48.990;12.146;2023-03-01T14:06:47;1999.90;;;733.97;;
68995;SDS011;56056;48.990;12.146;2023-03-01T14:09:14;1999.90;;;547.10;;
68995;SDS011;56056;48.990;12.146;2023-03-01T14:11:54;1400.95;;;264.33;;
68995;SDS011;56056;48.990;12.146;2023-03-01T14:14:40;1742.15;;;674.17;;
68995;SDS011;56056;48.990;12.146;2023-03-01T14:17:12;1706.05;;;325.95;;
68995;SDS011;56056;48.990;12.146;2023-03-01T14:19:56;1880.78;;;825.10;;